createdAt,value
2022-08-27T00:00:00.314Z,20.13
2022-08-27T00:01:00.348Z,20.06
2022-08-27T00:02:00.372Z,19.95
2022-08-27T00:03:00.349Z,20.09
2022-08-27T00:04:00.383Z,20.07
2022-08-27T00:05:00.302Z,20.02
2022-08-27T00:06:00.301Z,19.96
2022-08-27T00:07:00.295Z,20.07
2022-08-27T00:08:00.288Z,20.06
2022-08-27T00:09:00.281Z,20.09
2022-08-27T00:10:00.308Z,20.04
2022-08-27T00:11:00.497Z,20.06
2022-08-27T00:12:00.296Z,20.03
2022-08-27T00:13:00.271Z,20.06
2022-08-27T00:14:00.283Z,19.99
2022-08-27T00:15:00.267Z,20.00
2022-08-27T00:16:00.260Z,19.96
2022-08-27T00:17:00.244Z,20.06
2022-08-27T00:18:00.258Z,20.03
2022-08-27T00:19:00.271Z,20.00
2022-08-27T00:20:00.273Z,20.04
2022-08-27T00:21:00.263Z,20.00
2022-08-27T00:22:00.256Z,20.00
2022-08-27T00:23:00.280Z,19.95
2022-08-27T00:24:00.226Z,20.02
2022-08-27T00:25:00.295Z,20.03
2022-08-27T00:26:00.244Z,20.00
2022-08-27T00:27:00.231Z,19.99
2022-08-27T00:28:00.292Z,20.10
2022-08-27T00:29:00.223Z,20.09
2022-08-27T00:30:00.197Z,20.00
2022-08-27T00:31:00.238Z,20.02
2022-08-27T00:32:00.352Z,20.02
2022-08-27T00:33:00.198Z,20.00
2022-08-27T00:34:00.207Z,19.94
2022-08-27T00:35:00.259Z,20.03
2022-08-27T00:36:00.166Z,20.00
2022-08-27T00:37:00.223Z,19.96
2022-08-27T00:38:00.199Z,19.99
2022-08-27T00:39:00.243Z,19.94
2022-08-27T00:40:00.323Z,20.06
2022-08-27T00:41:00.228Z,20.06
2022-08-27T00:42:00.145Z,20.13
2022-08-27T00:43:00.217Z,20.09
2022-08-27T00:44:00.138Z,20.10
2022-08-27T00:45:00.182Z,20.11
2022-08-27T00:46:00.211Z,20.10
2022-08-27T00:47:00.357Z,20.18
2022-08-27T00:48:00.139Z,20.06
2022-08-27T00:49:00.144Z,20.10
2022-08-27T00:50:00.183Z,20.10
2022-08-27T00:51:00.146Z,20.11
2022-08-27T00:52:00.143Z,20.10
2022-08-27T00:53:00.137Z,19.96
2022-08-27T00:54:00.115Z,20.04
2022-08-27T00:55:00.107Z,20.11
2022-08-27T00:56:00.112Z,20.10
2022-08-27T00:57:00.079Z,20.09
2022-08-27T00:58:00.091Z,20.10
2022-08-27T00:59:00.098Z,20.13
2022-08-27T01:00:00.080Z,20.09
2022-08-27T01:01:00.169Z,20.07
2022-08-27T01:02:00.207Z,20.11
2022-08-27T01:03:00.064Z,20.10
2022-08-27T01:04:00.046Z,20.10
2022-08-27T01:05:00.112Z,20.11
2022-08-27T01:06:00.077Z,20.18
2022-08-27T01:07:00.042Z,20.09
2022-08-27T01:08:00.054Z,20.11
2022-08-27T01:09:00.045Z,20.11
2022-08-27T01:10:00.076Z,20.11
2022-08-27T01:11:00.034Z,20.07
2022-08-27T01:12:00.040Z,20.04
2022-08-27T01:13:00.024Z,20.14
2022-08-27T01:14:01.366Z,20.10
2022-08-27T01:15:00.055Z,20.09
2022-08-27T01:16:00.153Z,20.09
2022-08-27T01:17:00.000Z,20.06
2022-08-27T01:17:59.991Z,20.09
2022-08-27T01:19:00.004Z,19.96
2022-08-27T01:20:00.005Z,19.95
2022-08-27T01:20:59.994Z,19.91
2022-08-27T01:21:59.990Z,19.91
2022-08-27T01:22:59.976Z,20.02
2022-08-27T01:23:59.992Z,20.03
2022-08-27T01:24:59.964Z,20.03
2022-08-27T01:25:59.979Z,19.99
2022-08-27T01:26:59.979Z,20.03
2022-08-27T01:27:59.978Z,19.99
2022-08-27T01:28:59.947Z,20.06
2022-08-27T01:29:59.954Z,19.99
2022-08-27T01:30:59.950Z,20.02
2022-08-27T01:31:59.960Z,19.99
2022-08-27T01:32:59.944Z,20.13
2022-08-27T01:34:00.042Z,20.00
2022-08-27T01:34:59.923Z,20.04
2022-08-27T01:35:59.929Z,19.99
2022-08-27T01:36:59.921Z,19.99
2022-08-27T01:37:59.950Z,19.99
2022-08-27T01:38:59.958Z,19.94
2022-08-27T01:39:59.982Z,19.96
2022-08-27T01:41:00.207Z,19.99
2022-08-27T01:41:59.906Z,20.03
2022-08-27T01:42:59.918Z,20.07
2022-08-27T01:43:59.905Z,20.04
2022-08-27T01:44:59.883Z,19.99
2022-08-27T01:45:59.906Z,19.92
2022-08-27T01:46:59.951Z,19.92
2022-08-27T01:47:59.894Z,20.00
2022-08-27T01:48:59.907Z,20.03
2022-08-27T01:49:59.840Z,20.02
2022-08-27T01:50:59.899Z,20.03
2022-08-27T01:51:59.880Z,19.99
2022-08-27T01:52:59.829Z,20.03
2022-08-27T01:53:59.852Z,20.02
2022-08-27T01:54:59.972Z,19.99
2022-08-27T01:55:59.854Z,19.99
2022-08-27T01:56:59.876Z,19.99
2022-08-27T01:57:59.819Z,19.96
2022-08-27T01:58:59.828Z,20.00
2022-08-27T01:59:59.855Z,20.09
2022-08-27T02:00:59.868Z,20.06
2022-08-27T02:01:59.878Z,19.99
2022-08-27T02:02:59.841Z,20.02
2022-08-27T02:03:59.803Z,19.96
2022-08-27T02:04:59.810Z,19.96
2022-08-27T02:05:59.786Z,19.99
2022-08-27T02:06:59.777Z,19.99
2022-08-27T02:07:59.825Z,20.10
2022-08-27T02:08:59.773Z,20.10
2022-08-27T02:09:59.811Z,20.07
2022-08-27T02:10:59.764Z,20.07
2022-08-27T02:11:59.794Z,20.14
2022-08-27T02:12:59.767Z,20.11
2022-08-27T02:13:59.786Z,20.09
2022-08-27T02:14:59.772Z,20.09
2022-08-27T02:15:59.885Z,20.07
2022-08-27T02:16:59.735Z,20.04
2022-08-27T02:17:59.782Z,20.14
2022-08-27T02:18:59.847Z,20.14
2022-08-27T02:19:59.744Z,20.06
2022-08-27T02:20:59.734Z,20.13
2022-08-27T02:21:59.721Z,20.18
2022-08-27T02:22:59.705Z,20.10
2022-08-27T02:23:59.704Z,20.11
2022-08-27T02:24:59.708Z,20.22
2022-08-27T02:25:59.689Z,20.18
2022-08-27T02:26:59.703Z,20.11
2022-08-27T02:27:59.686Z,20.10
2022-08-27T02:28:59.722Z,20.16
2022-08-27T02:29:59.795Z,20.16
2022-08-27T02:30:59.779Z,20.13
2022-08-27T02:31:59.727Z,20.10
2022-08-27T02:32:59.680Z,20.11
2022-08-27T02:33:59.700Z,20.07
2022-08-27T02:34:59.664Z,20.10
2022-08-27T02:35:59.683Z,20.10
2022-08-27T02:36:59.691Z,20.10
2022-08-27T02:37:59.673Z,20.13
2022-08-27T02:38:59.687Z,20.18
2022-08-27T02:39:59.745Z,20.18
2022-08-27T02:40:59.758Z,20.22
2022-08-27T02:41:59.672Z,20.19
2022-08-27T02:42:59.613Z,20.14
2022-08-27T02:44:01.161Z,20.21
2022-08-27T02:44:59.639Z,20.14
2022-08-27T02:45:59.640Z,20.18
2022-08-27T02:46:59.746Z,20.24
2022-08-27T02:47:59.637Z,20.19
2022-08-27T02:48:59.609Z,20.22
2022-08-27T02:49:59.591Z,20.21
2022-08-27T02:50:59.629Z,20.21
2022-08-27T02:51:59.598Z,20.18
2022-08-27T02:52:59.615Z,20.16
2022-08-27T02:53:59.595Z,20.18
2022-08-27T02:54:59.631Z,20.16
2022-08-27T02:55:59.587Z,20.26
2022-08-27T02:56:59.565Z,20.13
2022-08-27T02:57:59.569Z,20.14
2022-08-27T02:58:59.547Z,20.14
2022-08-27T02:59:59.616Z,20.13
2022-08-27T03:00:59.556Z,20.16
2022-08-27T03:01:59.708Z,20.13
2022-08-27T03:02:59.609Z,20.24
2022-08-27T03:03:59.536Z,20.26
2022-08-27T03:04:59.554Z,20.29
2022-08-27T03:05:59.544Z,20.26
2022-08-27T03:06:59.536Z,20.25
2022-08-27T03:07:59.534Z,20.25
2022-08-27T03:08:59.581Z,20.16
2022-08-27T03:09:59.518Z,20.21
2022-08-27T03:10:59.557Z,20.04
2022-08-27T03:11:59.553Z,20.13
2022-08-27T03:12:59.493Z,20.14
2022-08-27T03:13:59.529Z,20.11
2022-08-27T03:14:59.530Z,20.22
2022-08-27T03:15:59.571Z,20.18
2022-08-27T03:16:59.475Z,20.14
2022-08-27T03:17:59.491Z,20.18
2022-08-27T03:18:59.474Z,20.24
2022-08-27T03:19:59.505Z,20.21
2022-08-27T03:20:59.481Z,20.21
2022-08-27T03:21:59.525Z,20.22
2022-08-27T03:22:59.456Z,20.19
2022-08-27T03:23:59.449Z,20.16
2022-08-27T03:24:59.461Z,20.07
2022-08-27T03:25:59.494Z,20.18
2022-08-27T03:26:59.460Z,20.14
2022-08-27T03:27:59.428Z,20.25
2022-08-27T03:28:59.440Z,20.18
2022-08-27T03:30:03.206Z,20.22
2022-08-27T03:30:59.515Z,20.22
2022-08-27T03:31:59.445Z,20.19
2022-08-27T03:32:59.405Z,20.19
2022-08-27T03:33:59.430Z,20.22
2022-08-27T03:34:59.409Z,20.19
2022-08-27T03:35:59.434Z,20.13
2022-08-27T03:36:59.418Z,20.19
2022-08-27T03:37:59.440Z,20.13
2022-08-27T03:38:59.388Z,20.10
2022-08-27T03:39:59.473Z,20.09
2022-08-27T03:40:59.384Z,20.24
2022-08-27T03:41:59.406Z,20.24
2022-08-27T03:42:59.377Z,20.28
2022-08-27T03:43:59.375Z,20.13
2022-08-27T03:44:59.365Z,20.18
2022-08-27T03:46:01.962Z,20.18
2022-08-27T03:46:59.343Z,20.13
2022-08-27T03:47:59.382Z,20.19
2022-08-27T03:48:59.407Z,20.13
2022-08-27T03:49:59.365Z,20.16
2022-08-27T03:50:59.340Z,20.06
2022-08-27T03:51:59.361Z,20.11
2022-08-27T03:52:59.332Z,20.16
2022-08-27T03:53:59.346Z,20.16
2022-08-27T03:54:59.350Z,20.09
2022-08-27T03:55:59.333Z,20.16
2022-08-27T03:56:59.303Z,20.11
2022-08-27T03:57:59.300Z,20.21
2022-08-27T03:58:59.314Z,20.14
2022-08-27T03:59:59.311Z,20.09
2022-08-27T04:00:59.282Z,20.06
2022-08-27T04:01:59.426Z,20.09
2022-08-27T04:02:59.320Z,20.11
2022-08-27T04:03:59.309Z,20.07
2022-08-27T04:04:59.288Z,20.04
2022-08-27T04:05:59.260Z,20.07
2022-08-27T04:06:59.312Z,20.10
2022-08-27T04:07:59.263Z,20.07
2022-08-27T04:08:59.250Z,20.10
2022-08-27T04:09:59.286Z,20.11
2022-08-27T04:10:59.245Z,20.07
2022-08-27T04:11:59.302Z,20.09
2022-08-27T04:12:59.248Z,20.09
2022-08-27T04:13:59.244Z,19.96
2022-08-27T04:14:59.250Z,20.10
2022-08-27T04:15:59.283Z,19.99
2022-08-27T04:16:59.234Z,20.02
2022-08-27T04:17:59.265Z,20.04
2022-08-27T04:18:59.215Z,19.95
2022-08-27T04:20:08.715Z,19.96
2022-08-27T04:20:59.247Z,19.91
2022-08-27T04:21:59.194Z,19.88
2022-08-27T04:22:59.207Z,19.82
2022-08-27T04:23:59.212Z,19.76
2022-08-27T04:24:59.183Z,19.79
2022-08-27T04:25:59.181Z,19.81
2022-08-27T04:26:59.167Z,19.74
2022-08-27T04:27:59.175Z,19.82
2022-08-27T04:28:59.164Z,19.76
2022-08-27T04:29:59.174Z,19.69
2022-08-27T04:30:59.217Z,19.71
2022-08-27T04:31:59.186Z,19.70
2022-08-27T04:32:59.193Z,19.58
2022-08-27T04:33:59.181Z,19.49
2022-08-27T04:34:59.171Z,19.45
2022-08-27T04:35:59.197Z,19.45
2022-08-27T04:36:59.160Z,19.34
2022-08-27T04:37:59.175Z,19.36
2022-08-27T04:38:59.164Z,19.37
2022-08-27T04:39:59.221Z,19.34
2022-08-27T04:40:59.119Z,19.36
2022-08-27T04:41:59.154Z,19.30
2022-08-27T04:42:59.122Z,19.33
2022-08-27T04:43:59.108Z,19.40
2022-08-27T04:44:59.089Z,19.30
2022-08-27T04:45:59.152Z,19.31
2022-08-27T04:46:59.097Z,19.41
2022-08-27T04:47:59.136Z,19.33
2022-08-27T04:48:59.089Z,19.34
2022-08-27T04:49:59.083Z,19.39
2022-08-27T04:50:59.083Z,19.37
2022-08-27T04:51:59.092Z,19.45
2022-08-27T04:52:59.064Z,19.40
2022-08-27T04:53:59.966Z,19.40
2022-08-27T04:54:59.058Z,19.39
2022-08-27T04:55:59.047Z,19.51
2022-08-27T04:56:59.064Z,19.59
2022-08-27T04:57:59.059Z,19.58
2022-08-27T04:58:59.066Z,19.55
2022-08-27T04:59:59.020Z,19.63
2022-08-27T05:00:59.047Z,19.54
2022-08-27T05:01:59.172Z,19.55
2022-08-27T05:02:59.029Z,19.52
2022-08-27T05:03:59.000Z,19.59
2022-08-27T05:04:59.051Z,19.66
2022-08-27T05:05:59.001Z,19.58
2022-08-27T05:06:58.987Z,19.63
2022-08-27T05:07:58.989Z,19.56
2022-08-27T05:08:59.037Z,19.63
2022-08-27T05:09:58.970Z,19.54
2022-08-27T05:10:58.993Z,19.55
2022-08-27T05:11:59.183Z,19.48
2022-08-27T05:13:00.069Z,19.49
2022-08-27T05:13:58.983Z,19.49
2022-08-27T05:14:58.978Z,19.56
2022-08-27T05:15:59.062Z,19.54
2022-08-27T05:16:58.982Z,19.51
2022-08-27T05:17:58.955Z,19.59
2022-08-27T05:18:58.975Z,19.56
2022-08-27T05:19:58.950Z,19.56
2022-08-27T05:20:58.927Z,19.55
2022-08-27T05:21:58.948Z,19.55
2022-08-27T05:22:58.946Z,19.58
2022-08-27T05:23:58.914Z,19.51
2022-08-27T05:24:58.902Z,19.49
2022-08-27T05:25:58.918Z,19.51
2022-08-27T05:26:58.918Z,19.55
2022-08-27T05:27:58.906Z,19.47
2022-08-27T05:28:58.896Z,19.51
2022-08-27T05:29:58.904Z,19.41
2022-08-27T05:30:58.904Z,19.39
2022-08-27T05:31:58.877Z,19.45
2022-08-27T05:32:58.913Z,19.51
2022-08-27T05:33:58.858Z,19.51
2022-08-27T05:34:58.913Z,19.48
2022-08-27T05:35:58.887Z,19.49
2022-08-27T05:36:58.879Z,19.54
2022-08-27T05:37:58.859Z,19.55
2022-08-27T05:38:59.067Z,19.56
2022-08-27T05:39:58.871Z,19.59
2022-08-27T05:40:58.851Z,19.62
2022-08-27T05:41:58.855Z,19.62
2022-08-27T05:42:58.817Z,19.55
2022-08-27T05:43:58.818Z,19.62
2022-08-27T05:44:58.826Z,19.67
2022-08-27T05:45:58.844Z,19.66
2022-08-27T05:46:58.822Z,19.66
2022-08-27T05:47:58.828Z,19.69
2022-08-27T05:48:58.821Z,19.67
2022-08-27T05:49:58.825Z,19.76
2022-08-27T05:50:58.803Z,19.71
2022-08-27T05:51:58.802Z,19.69
2022-08-27T05:52:58.773Z,19.69
2022-08-27T05:53:58.775Z,19.66
2022-08-27T05:54:58.783Z,19.76
2022-08-27T05:55:58.786Z,19.71
2022-08-27T05:56:58.804Z,19.67
2022-08-27T05:57:58.760Z,19.73
2022-08-27T05:58:58.770Z,19.67
2022-08-27T05:59:58.764Z,19.74
2022-08-27T06:01:02.962Z,19.74
2022-08-27T06:01:58.757Z,19.73
2022-08-27T06:02:58.791Z,19.69
2022-08-27T06:03:58.733Z,19.69
2022-08-27T06:04:58.771Z,19.63
2022-08-27T06:05:58.727Z,19.66
2022-08-27T06:06:58.726Z,19.73
2022-08-27T06:07:58.703Z,19.71
2022-08-27T06:08:58.703Z,19.67
2022-08-27T06:09:58.686Z,19.62
2022-08-27T06:10:58.689Z,19.67
2022-08-27T06:11:58.714Z,19.56
2022-08-27T06:12:58.690Z,19.55
2022-08-27T06:13:58.703Z,19.54
2022-08-27T06:14:58.882Z,19.56
2022-08-27T06:15:58.706Z,19.55
2022-08-27T06:16:58.815Z,19.49
2022-08-27T06:17:58.693Z,19.52
2022-08-27T06:18:58.708Z,19.54
2022-08-27T06:19:58.651Z,19.47
2022-08-27T06:20:58.661Z,19.54
2022-08-27T06:22:00.787Z,19.52
2022-08-27T06:22:58.656Z,19.56
2022-08-27T06:23:58.683Z,19.52
2022-08-27T06:24:58.681Z,19.47
2022-08-27T06:25:58.636Z,19.40
2022-08-27T06:26:58.842Z,19.39
2022-08-27T06:27:58.630Z,19.39
2022-08-27T06:28:58.640Z,19.45
2022-08-27T06:29:58.612Z,19.39
2022-08-27T06:30:58.696Z,19.39
2022-08-27T06:31:58.602Z,19.40
2022-08-27T06:32:58.611Z,19.34
2022-08-27T06:33:58.578Z,19.48
2022-08-27T06:34:58.585Z,19.48
2022-08-27T06:35:58.575Z,19.48
2022-08-27T06:36:58.614Z,19.49
2022-08-27T06:37:58.585Z,19.59
2022-08-27T06:38:58.594Z,19.59
2022-08-27T06:39:58.608Z,19.62
2022-08-27T06:40:58.604Z,19.59
2022-08-27T06:41:58.590Z,19.63
2022-08-27T06:42:58.539Z,19.66
2022-08-27T06:43:58.542Z,19.71
2022-08-27T06:44:58.556Z,19.67
2022-08-27T06:45:58.548Z,19.74
2022-08-27T06:46:58.528Z,19.71
2022-08-27T06:47:58.574Z,19.77
2022-08-27T06:48:58.539Z,19.73
2022-08-27T06:49:58.510Z,19.82
2022-08-27T06:50:58.515Z,19.73
2022-08-27T06:51:58.510Z,19.74
2022-08-27T06:52:58.509Z,19.79
2022-08-27T06:53:58.497Z,19.77
2022-08-27T06:54:58.550Z,19.79
2022-08-27T06:55:58.527Z,19.82
2022-08-27T06:56:58.536Z,19.74
2022-08-27T06:57:58.482Z,19.79
2022-08-27T06:58:58.513Z,19.84
2022-08-27T06:59:58.467Z,19.84
2022-08-27T07:00:58.475Z,19.84
2022-08-27T07:01:58.574Z,19.82
2022-08-27T07:02:58.505Z,19.85
2022-08-27T07:03:58.483Z,19.86
2022-08-27T07:04:58.464Z,19.86
2022-08-27T07:05:58.448Z,19.86
2022-08-27T07:06:58.449Z,19.92
2022-08-27T07:07:58.456Z,19.89
2022-08-27T07:08:58.643Z,19.86
2022-08-27T07:09:58.427Z,19.96
2022-08-27T07:10:58.504Z,19.91
2022-08-27T07:11:58.430Z,20.04
2022-08-27T07:12:58.409Z,20.00
2022-08-27T07:13:58.404Z,19.92
2022-08-27T07:14:58.424Z,19.96
2022-08-27T07:15:58.478Z,20.03
2022-08-27T07:16:58.389Z,19.99
2022-08-27T07:17:58.391Z,20.09
2022-08-27T07:19:01.835Z,20.13
2022-08-27T07:19:58.421Z,20.09
2022-08-27T07:20:58.401Z,20.14
2022-08-27T07:21:58.390Z,20.19
2022-08-27T07:22:58.430Z,20.13
2022-08-27T07:23:58.368Z,20.24
2022-08-27T07:24:58.389Z,20.28
2022-08-27T07:25:58.365Z,20.28
2022-08-27T07:26:58.348Z,20.36
2022-08-27T07:27:58.344Z,20.34
2022-08-27T07:28:58.382Z,20.25
2022-08-27T07:29:58.382Z,20.28
2022-08-27T07:30:58.382Z,20.16
2022-08-27T07:31:58.340Z,20.18
2022-08-27T07:32:58.324Z,20.26
2022-08-27T07:33:58.323Z,20.32
2022-08-27T07:34:58.311Z,20.32
2022-08-27T07:35:58.332Z,20.36
2022-08-27T07:36:58.592Z,20.29
2022-08-27T07:37:58.295Z,20.31
2022-08-27T07:39:01.268Z,20.37
2022-08-27T07:39:58.353Z,20.34
2022-08-27T07:40:58.285Z,20.34
2022-08-27T07:41:58.293Z,20.36
2022-08-27T07:42:58.276Z,20.44
2022-08-27T07:43:58.278Z,20.40
2022-08-27T07:44:58.269Z,20.48
2022-08-27T07:45:58.330Z,20.40
2022-08-27T07:46:58.263Z,20.41
2022-08-27T07:47:58.283Z,20.40
2022-08-27T07:48:58.260Z,20.39
2022-08-27T07:49:58.248Z,20.41
2022-08-27T07:50:58.280Z,20.43
2022-08-27T07:51:58.270Z,20.37
2022-08-27T07:52:58.243Z,20.37
2022-08-27T07:53:58.238Z,20.37
2022-08-27T07:54:58.221Z,20.36
2022-08-27T07:55:58.222Z,20.47
2022-08-27T07:56:58.237Z,20.40
2022-08-27T07:57:58.225Z,20.43
2022-08-27T07:58:58.306Z,20.48
2022-08-27T07:59:58.231Z,20.51
2022-08-27T08:00:58.240Z,20.40
2022-08-27T08:01:58.210Z,20.48
2022-08-27T08:02:58.309Z,20.44
2022-08-27T08:03:58.202Z,20.58
2022-08-27T08:04:58.181Z,20.56
2022-08-27T08:05:58.171Z,20.52
2022-08-27T08:06:58.166Z,20.52
2022-08-27T08:07:58.166Z,20.59
2022-08-27T08:08:58.187Z,20.55
2022-08-27T08:09:58.189Z,20.47
2022-08-27T08:10:58.335Z,20.59
2022-08-27T08:11:58.166Z,20.52
2022-08-27T08:12:58.860Z,20.56
2022-08-27T08:13:58.180Z,20.58
2022-08-27T08:14:58.158Z,20.62
2022-08-27T08:15:58.136Z,20.59
2022-08-27T08:16:58.335Z,20.63
2022-08-27T08:17:58.507Z,20.63
2022-08-27T08:18:58.149Z,20.74
2022-08-27T08:20:19.561Z,20.80
2022-08-27T08:20:58.913Z,20.78
2022-08-27T08:22:00.423Z,20.78
2022-08-27T08:22:58.102Z,20.78
2022-08-27T08:23:58.107Z,20.80
2022-08-27T08:24:58.114Z,20.77
2022-08-27T08:25:58.096Z,20.77
2022-08-27T08:26:58.111Z,20.87
2022-08-27T08:27:58.111Z,20.87
2022-08-27T08:28:58.323Z,20.85
2022-08-27T08:29:58.073Z,20.87
2022-08-27T08:30:58.230Z,20.92
2022-08-27T08:31:58.079Z,20.87
2022-08-27T08:32:58.067Z,20.99
2022-08-27T08:33:58.078Z,20.92
2022-08-27T08:34:58.085Z,20.90
2022-08-27T08:35:58.085Z,20.93
2022-08-27T08:36:58.070Z,20.87
2022-08-27T08:37:58.073Z,20.90
2022-08-27T08:38:58.052Z,20.96
2022-08-27T08:39:58.133Z,20.93
2022-08-27T08:40:58.046Z,20.93
2022-08-27T08:41:58.052Z,20.92
2022-08-27T08:42:58.053Z,20.78
2022-08-27T08:44:01.048Z,20.88
2022-08-27T08:44:58.025Z,20.93
2022-08-27T08:45:58.055Z,20.75
2022-08-27T08:46:58.012Z,20.77
2022-08-27T08:47:58.005Z,20.77
2022-08-27T08:48:57.996Z,20.81
2022-08-27T08:49:58.018Z,20.77
2022-08-27T08:50:58.041Z,20.80
2022-08-27T08:51:57.993Z,20.77
2022-08-27T08:52:58.107Z,20.84
2022-08-27T08:53:57.971Z,20.82
2022-08-27T08:54:57.986Z,20.77
2022-08-27T08:55:58.198Z,20.78
2022-08-27T08:56:57.967Z,20.81
2022-08-27T08:57:58.203Z,20.80
2022-08-27T08:58:57.960Z,20.84
2022-08-27T08:59:57.982Z,20.75
2022-08-27T09:00:58.048Z,20.80
2022-08-27T09:01:57.943Z,20.81
2022-08-27T09:02:57.952Z,20.75
2022-08-27T09:03:57.996Z,20.74
2022-08-27T09:04:57.930Z,20.74
2022-08-27T09:05:57.978Z,20.63
2022-08-27T09:06:57.976Z,20.74
2022-08-27T09:08:09.920Z,20.78
2022-08-27T09:08:57.918Z,20.87
2022-08-27T09:09:57.924Z,20.92
2022-08-27T09:10:57.906Z,20.96
2022-08-27T09:11:57.899Z,21.00
2022-08-27T09:12:57.913Z,20.96
2022-08-27T09:13:57.898Z,20.99
2022-08-27T09:14:58.003Z,20.96
2022-08-27T09:15:57.893Z,20.96
2022-08-27T09:16:57.969Z,21.06
2022-08-27T09:17:57.889Z,21.06
2022-08-27T09:18:57.876Z,21.14
2022-08-27T09:19:57.933Z,21.30
2022-08-27T09:20:57.876Z,21.22
2022-08-27T09:21:58.149Z,21.33
2022-08-27T09:22:57.884Z,21.35
2022-08-27T09:23:57.876Z,21.37
2022-08-27T09:24:57.888Z,21.45
2022-08-27T09:25:57.885Z,21.51
2022-08-27T09:26:57.926Z,21.45
2022-08-27T09:27:57.895Z,21.42
2022-08-27T09:28:57.853Z,21.45
2022-08-27T09:29:57.883Z,21.45
2022-08-27T09:30:57.924Z,21.45
2022-08-27T09:31:58.086Z,21.48
2022-08-27T09:32:58.043Z,21.42
2022-08-27T09:33:58.036Z,21.45
2022-08-27T09:34:57.831Z,21.43
2022-08-27T09:35:57.804Z,21.43
2022-08-27T09:36:57.982Z,21.32
2022-08-27T09:37:57.804Z,21.51
2022-08-27T09:38:58.198Z,21.46
2022-08-27T09:39:57.860Z,21.45
2022-08-27T09:40:57.800Z,21.50
2022-08-27T09:41:57.990Z,21.39
2022-08-27T09:42:57.783Z,21.40
2022-08-27T09:43:57.804Z,21.40
2022-08-27T09:44:57.993Z,21.45
2022-08-27T09:45:58.012Z,21.35
2022-08-27T09:46:57.767Z,21.37
2022-08-27T09:47:57.792Z,21.40
2022-08-27T09:48:57.772Z,21.54
2022-08-27T09:49:57.956Z,21.46
2022-08-27T09:50:57.748Z,21.61
2022-08-27T09:51:57.780Z,21.54
2022-08-27T09:52:57.773Z,21.52
2022-08-27T09:53:57.767Z,21.52
2022-08-27T09:54:57.767Z,21.48
2022-08-27T09:55:57.791Z,21.60
2022-08-27T09:56:57.754Z,21.45
2022-08-27T09:57:57.750Z,21.46
2022-08-27T09:58:57.717Z,21.52
2022-08-27T09:59:57.740Z,21.57
2022-08-27T10:00:57.989Z,21.62
2022-08-27T10:01:57.754Z,21.54
2022-08-27T10:02:57.705Z,21.61
2022-08-27T10:03:57.761Z,21.70
2022-08-27T10:04:57.708Z,21.62
2022-08-27T10:05:57.740Z,21.60
2022-08-27T10:06:57.713Z,21.72
2022-08-27T10:07:57.702Z,21.77
2022-08-27T10:08:57.700Z,21.79
2022-08-27T10:09:57.949Z,21.79
2022-08-27T10:10:57.672Z,21.85
2022-08-27T10:11:57.968Z,21.72
2022-08-27T10:12:57.716Z,21.82
2022-08-27T10:13:57.876Z,21.88
2022-08-27T10:14:57.710Z,21.82
2022-08-27T10:15:57.866Z,21.77
2022-08-27T10:16:57.770Z,21.92
2022-08-27T10:17:57.696Z,21.85
2022-08-27T10:18:57.663Z,21.82
2022-08-27T10:19:57.687Z,21.96
2022-08-27T10:21:00.147Z,21.77
2022-08-27T10:21:57.642Z,21.83
2022-08-27T10:22:57.675Z,21.79
2022-08-27T10:23:57.674Z,21.75
2022-08-27T10:24:57.671Z,21.77
2022-08-27T10:25:57.731Z,21.73
2022-08-27T10:26:57.656Z,21.64
2022-08-27T10:27:57.632Z,21.62
2022-08-27T10:28:57.822Z,21.70
2022-08-27T10:29:57.628Z,21.58
2022-08-27T10:30:57.784Z,21.64
2022-08-27T10:31:57.750Z,21.58
2022-08-27T10:32:57.606Z,21.52
2022-08-27T10:33:57.673Z,21.42
2022-08-27T10:34:57.622Z,21.48
2022-08-27T10:35:57.620Z,21.54
2022-08-27T10:36:57.580Z,21.54
2022-08-27T10:37:57.688Z,21.52
2022-08-27T10:38:57.861Z,21.58
2022-08-27T10:39:57.638Z,21.61
2022-08-27T10:40:57.610Z,21.66
2022-08-27T10:41:57.613Z,21.70
2022-08-27T10:42:58.028Z,21.67
2022-08-27T10:43:57.605Z,21.61
2022-08-27T10:44:57.578Z,21.60
2022-08-27T10:45:57.588Z,21.67
2022-08-27T10:46:57.553Z,21.77
2022-08-27T10:47:57.539Z,21.82
2022-08-27T10:48:57.547Z,21.80
2022-08-27T10:49:57.591Z,21.80
2022-08-27T10:50:57.539Z,21.89
2022-08-27T10:51:57.543Z,21.83
2022-08-27T10:52:57.564Z,21.76
2022-08-27T10:53:57.559Z,21.73
2022-08-27T10:54:57.551Z,21.64
2022-08-27T10:55:57.529Z,21.62
2022-08-27T10:57:22.837Z,21.60
2022-08-27T10:58:01.033Z,21.66
2022-08-27T10:58:57.721Z,21.70
2022-08-27T10:59:57.516Z,21.62
2022-08-27T11:00:57.571Z,21.64
2022-08-27T11:01:57.537Z,21.67
2022-08-27T11:02:57.581Z,21.69
2022-08-27T11:03:57.527Z,21.66
2022-08-27T11:04:57.504Z,21.69
2022-08-27T11:05:57.509Z,21.76
2022-08-27T11:06:57.510Z,21.77
2022-08-27T11:07:57.481Z,21.80
2022-08-27T11:08:57.463Z,21.85
2022-08-27T11:09:57.630Z,21.95
2022-08-27T11:10:57.463Z,21.98
2022-08-27T11:12:13.707Z,21.98
2022-08-27T11:12:57.463Z,21.89
2022-08-27T11:14:01.069Z,22.00
2022-08-27T11:14:57.646Z,22.07
2022-08-27T11:15:57.645Z,22.00
2022-08-27T11:16:57.483Z,21.98
2022-08-27T11:17:57.451Z,21.98
2022-08-27T11:18:57.439Z,21.95
2022-08-27T11:19:57.426Z,21.88
2022-08-27T11:20:57.424Z,21.85
2022-08-27T11:21:57.458Z,21.92
2022-08-27T11:22:57.419Z,21.91
2022-08-27T11:23:57.434Z,21.96
2022-08-27T11:24:57.441Z,21.93
2022-08-27T11:26:02.006Z,21.91
2022-08-27T11:26:57.401Z,21.89
2022-08-27T11:27:57.423Z,21.89
2022-08-27T11:28:57.427Z,21.85
2022-08-27T11:30:00.079Z,21.88
2022-08-27T11:30:57.433Z,21.89
2022-08-27T11:31:57.503Z,21.91
2022-08-27T11:32:57.418Z,21.89
2022-08-27T11:33:57.408Z,21.82
2022-08-27T11:34:57.374Z,21.83
2022-08-27T11:35:57.418Z,21.75
2022-08-27T11:36:57.371Z,21.76
2022-08-27T11:37:57.364Z,21.75
2022-08-27T11:38:57.362Z,21.70
2022-08-27T11:39:57.459Z,21.67
2022-08-27T11:40:57.381Z,21.66
2022-08-27T11:41:57.382Z,21.62
2022-08-27T11:42:57.383Z,21.60
2022-08-27T11:43:57.388Z,21.57
2022-08-27T11:44:57.347Z,21.62
2022-08-27T11:45:57.355Z,21.58
2022-08-27T11:46:57.389Z,21.58
2022-08-27T11:47:57.327Z,21.57
2022-08-27T11:48:57.366Z,21.52
2022-08-27T11:49:57.356Z,21.54
2022-08-27T11:50:57.343Z,21.50
2022-08-27T11:51:57.321Z,21.40
2022-08-27T11:52:57.552Z,21.40
2022-08-27T11:53:57.351Z,21.58
2022-08-27T11:54:57.341Z,21.51
2022-08-27T11:55:57.301Z,21.43
2022-08-27T11:56:57.280Z,21.48
2022-08-27T11:57:57.322Z,21.48
2022-08-27T11:58:57.299Z,21.43
2022-08-27T11:59:57.293Z,21.45
2022-08-27T12:00:59.907Z,21.40
2022-08-27T12:01:57.269Z,21.46
2022-08-27T12:02:57.466Z,21.52
2022-08-27T12:03:57.316Z,21.50
2022-08-27T12:04:57.258Z,21.51
2022-08-27T12:05:57.254Z,21.43
2022-08-27T12:06:57.243Z,21.45
2022-08-27T12:07:57.240Z,21.40
2022-08-27T12:08:57.289Z,21.43
2022-08-27T12:09:57.230Z,21.48
2022-08-27T12:10:57.246Z,21.46
2022-08-27T12:11:57.280Z,21.46
2022-08-27T12:12:57.277Z,21.48
2022-08-27T12:13:57.232Z,21.54
2022-08-27T12:14:57.238Z,21.48
2022-08-27T12:15:57.317Z,21.61
2022-08-27T12:16:57.222Z,21.60
2022-08-27T12:17:57.273Z,21.73
2022-08-27T12:18:57.285Z,21.64
2022-08-27T12:19:57.212Z,21.79
2022-08-27T12:20:57.222Z,21.79
2022-08-27T12:21:57.209Z,21.89
2022-08-27T12:22:57.221Z,21.83
2022-08-27T12:23:57.213Z,21.85
2022-08-27T12:24:57.181Z,21.99
2022-08-27T12:25:57.205Z,21.95
2022-08-27T12:26:57.186Z,22.00
2022-08-27T12:27:57.185Z,22.07
2022-08-27T12:28:57.162Z,22.10
2022-08-27T12:29:57.183Z,21.98
2022-08-27T12:30:57.166Z,22.10
2022-08-27T12:31:57.259Z,22.20
2022-08-27T12:32:57.158Z,22.15
2022-08-27T12:33:57.188Z,22.20
2022-08-27T12:34:59.675Z,22.23
2022-08-27T12:35:57.236Z,22.26
2022-08-27T12:36:57.264Z,22.26
2022-08-27T12:37:57.918Z,22.22
2022-08-27T12:38:57.162Z,22.30
2022-08-27T12:39:57.144Z,22.26
2022-08-27T12:40:57.180Z,22.28
2022-08-27T12:41:57.111Z,22.26
2022-08-27T12:42:57.130Z,22.26
2022-08-27T12:43:57.131Z,22.23
2022-08-27T12:44:57.126Z,22.35
2022-08-27T12:45:57.117Z,22.38
2022-08-27T12:46:57.174Z,22.38
2022-08-27T12:47:57.105Z,22.44
2022-08-27T12:48:57.095Z,22.35
2022-08-27T12:49:57.129Z,22.50
2022-08-27T12:50:57.115Z,22.47
2022-08-27T12:51:57.107Z,22.53